Terminal Aerodrome Forecast
Issued by NWS Mt. Holly, NJ

Home | Current Version | Previous Version | Text Only | Print | Product List | Glossary On
Versions: 1 2 3 4 5 6 7 8 9 10 11 12 13 14 15 16 17 18 19 20 21 22
703
FTUS41 KPHI 160126 AAC
TAFILG
TAF AMD
KILG 160126Z 1601/1624 27004KT P6SM SCT015 BKN060
      TEMPO 1602/1604 BKN015 OVC060
     FM160400 27006KT P6SM SCT250
     FM161600 24010G18KT P6SM BKN050
     FM162300 27006KT P6SM SCT050=

USA.gov is the U.S. government's official web portal to all federal, state and local government web resources and services.